sensor_id;sensor_type;location;lat;lon;timestamp;temperature;humidity
20833;DHT22;56075;51.264;7.150;2023-05-10T00:01:32;13.10;99.90
20833;DHT22;56075;51.264;7.150;2023-05-10T00:04:03;12.80;99.90
20833;DHT22;56075;51.264;7.150;2023-05-10T00:06:34;13.00;99.90
20833;DHT22;56075;51.264;7.150;2023-05-10T00:09:06;12.70;99.90
20833;DHT22;56075;51.264;7.150;2023-05-10T00:11:38;13.00;99.90
20833;DHT22;56075;51.264;7.150;2023-05-10T00:14:09;13.50;99.90
20833;DHT22;56075;51.264;7.150;2023-05-10T00:16:40;12.70;99.90
20833;DHT22;56075;51.264;7.150;2023-05-10T00:19:11;13.90;99.90
20833;DHT22;56075;51.264;7.150;2023-05-10T00:21:42;13.00;99.90
20833;DHT22;56075;51.264;7.150;2023-05-10T00:24:14;14.00;99.90
20833;DHT22;56075;51.264;7.150;2023-05-10T00:26:45;14.10;99.90
20833;DHT22;56075;51.264;7.150;2023-05-10T00:29:16;12.80;99.90
20833;DHT22;56075;51.264;7.150;2023-05-10T00:31:47;12.80;99.90
20833;DHT22;56075;51.264;7.150;2023-05-10T00:34:18;14.30;99.90
20833;DHT22;56075;51.264;7.150;2023-05-10T00:36:49;12.80;99.90
20833;DHT22;56075;51.264;7.150;2023-05-10T00:39:21;13.40;99.90
20833;DHT22;56075;51.264;7.150;2023-05-10T00:41:52;12.70;99.90
20833;DHT22;56075;51.264;7.150;2023-05-10T00:44:23;13.00;99.90
20833;DHT22;56075;51.264;7.150;2023-05-10T00:46:54;13.40;99.90
20833;DHT22;56075;51.264;7.150;2023-05-10T00:49:25;12.70;99.90
20833;DHT22;56075;51.264;7.150;2023-05-10T00:51:57;12.70;99.90
20833;DHT22;56075;51.264;7.150;2023-05-10T00:54:28;12.90;99.90
20833;DHT22;56075;51.264;7.150;2023-05-10T00:56:59;12.80;99.90
20833;DHT22;56075;51.264;7.150;2023-05-10T00:59:32;12.90;99.90
20833;DHT22;56075;51.264;7.150;2023-05-10T01:02:03;12.70;99.90
20833;DHT22;56075;51.264;7.150;2023-05-10T01:04:35;13.70;99.90
20833;DHT22;56075;51.264;7.150;2023-05-10T01:07:06;14.30;99.90
20833;DHT22;56075;51.264;7.150;2023-05-10T01:09:37;13.00;99.90
20833;DHT22;56075;51.264;7.150;2023-05-10T01:12:09;13.50;99.90
20833;DHT22;56075;51.264;7.150;2023-05-10T01:14:40;13.00;99.90
20833;DHT22;56075;51.264;7.150;2023-05-10T01:17:12;13.10;99.90
20833;DHT22;56075;51.264;7.150;2023-05-10T01:19:43;13.00;99.90
20833;DHT22;56075;51.264;7.150;2023-05-10T01:22:50;13.00;99.90
20833;DHT22;56075;51.264;7.150;2023-05-10T01:34:27;12.90;99.90
20833;DHT22;56075;51.264;7.150;2023-05-10T01:37:15;12.90;99.90
20833;DHT22;56075;51.264;7.150;2023-05-10T01:40:00;13.20;99.90
20833;DHT22;56075;51.264;7.150;2023-05-10T01:42:46;12.70;99.90
20833;DHT22;56075;51.264;7.150;2023-05-10T01:45:33;12.80;99.90
20833;DHT22;56075;51.264;7.150;2023-05-10T01:48:11;13.00;99.90
20833;DHT22;56075;51.264;7.150;2023-05-10T01:50:46;12.80;99.90
20833;DHT22;56075;51.264;7.150;2023-05-10T01:53:20;12.80;99.90
20833;DHT22;56075;51.264;7.150;2023-05-10T01:55:53;12.80;99.90
20833;DHT22;56075;51.264;7.150;2023-05-10T01:58:31;12.90;99.90
20833;DHT22;56075;51.264;7.150;2023-05-10T02:01:04;12.90;99.90
20833;DHT22;56075;51.264;7.150;2023-05-10T02:03:38;12.90;99.90
20833;DHT22;56075;51.264;7.150;2023-05-10T02:06:12;13.00;99.90
20833;DHT22;56075;51.264;7.150;2023-05-10T02:08:45;12.80;99.90
20833;DHT22;56075;51.264;7.150;2023-05-10T02:11:18;12.80;99.90
20833;DHT22;56075;51.264;7.150;2023-05-10T02:13:53;12.90;99.90
20833;DHT22;56075;51.264;7.150;2023-05-10T02:16:31;12.70;99.90
20833;DHT22;56075;51.264;7.150;2023-05-10T02:19:05;12.90;99.90
20833;DHT22;56075;51.264;7.150;2023-05-10T02:21:39;12.80;99.90
20833;DHT22;56075;51.264;7.150;2023-05-10T02:24:11;13.60;99.90
20833;DHT22;56075;51.264;7.150;2023-05-10T02:26:44;13.00;99.90
20833;DHT22;56075;51.264;7.150;2023-05-10T02:29:16;12.80;99.90
20833;DHT22;56075;51.264;7.150;2023-05-10T02:31:51;12.80;99.90
20833;DHT22;56075;51.264;7.150;2023-05-10T02:34:25;12.70;99.90
20833;DHT22;56075;51.264;7.150;2023-05-10T02:36:57;14.30;99.90
20833;DHT22;56075;51.264;7.150;2023-05-10T02:39:29;12.80;99.90
20833;DHT22;56075;51.264;7.150;2023-05-10T02:42:02;13.90;99.90
20833;DHT22;56075;51.264;7.150;2023-05-10T02:44:36;13.10;99.90
20833;DHT22;56075;51.264;7.150;2023-05-10T02:47:08;12.50;99.90
20833;DHT22;56075;51.264;7.150;2023-05-10T02:49:39;12.50;99.90
20833;DHT22;56075;51.264;7.150;2023-05-10T02:52:16;12.50;99.90
20833;DHT22;56075;51.264;7.150;2023-05-10T02:54:54;12.50;99.90
20833;DHT22;56075;51.264;7.150;2023-05-10T02:57:34;12.70;99.90
20833;DHT22;56075;51.264;7.150;2023-05-10T03:00:09;12.60;99.90
20833;DHT22;56075;51.264;7.150;2023-05-10T03:02:41;12.70;99.90
20833;DHT22;56075;51.264;7.150;2023-05-10T03:05:13;12.60;99.90
20833;DHT22;56075;51.264;7.150;2023-05-10T03:07:45;12.80;99.90
20833;DHT22;56075;51.264;7.150;2023-05-10T03:10:17;13.90;99.90
20833;DHT22;56075;51.264;7.150;2023-05-10T03:13:29;12.60;99.90
20833;DHT22;56075;51.264;7.150;2023-05-10T03:16:14;12.40;99.90
20833;DHT22;56075;51.264;7.150;2023-05-10T03:19:00;13.10;99.90
20833;DHT22;56075;51.264;7.150;2023-05-10T03:21:32;12.50;99.90
20833;DHT22;56075;51.264;7.150;2023-05-10T03:24:05;12.50;99.90
20833;DHT22;56075;51.264;7.150;2023-05-10T03:26:38;12.50;99.90
20833;DHT22;56075;51.264;7.150;2023-05-10T03:29:18;12.40;99.90
20833;DHT22;56075;51.264;7.150;2023-05-10T03:31:50;12.40;99.90
20833;DHT22;56075;51.264;7.150;2023-05-10T03:34:25;12.70;99.90
20833;DHT22;56075;51.264;7.150;2023-05-10T03:36:57;13.60;99.90
20833;DHT22;56075;51.264;7.150;2023-05-10T03:39:29;12.40;99.90
20833;DHT22;56075;51.264;7.150;2023-05-10T03:42:03;12.40;99.90
20833;DHT22;56075;51.264;7.150;2023-05-10T03:44:35;12.50;99.90
20833;DHT22;56075;51.264;7.150;2023-05-10T03:47:06;12.40;99.90
20833;DHT22;56075;51.264;7.150;2023-05-10T03:49:38;13.00;99.90
20833;DHT22;56075;51.264;7.150;2023-05-10T03:52:09;12.60;99.90
20833;DHT22;56075;51.264;7.150;2023-05-10T03:54:40;12.80;99.90
20833;DHT22;56075;51.264;7.150;2023-05-10T03:57:11;12.50;99.90
20833;DHT22;56075;51.264;7.150;2023-05-10T03:59:42;12.50;99.90
20833;DHT22;56075;51.264;7.150;2023-05-10T04:02:14;12.40;99.90
20833;DHT22;56075;51.264;7.150;2023-05-10T04:04:45;12.60;99.90
20833;DHT22;56075;51.264;7.150;2023-05-10T04:07:16;12.60;99.90
20833;DHT22;56075;51.264;7.150;2023-05-10T04:09:47;13.40;99.90
20833;DHT22;56075;51.264;7.150;2023-05-10T04:12:19;12.60;99.90
20833;DHT22;56075;51.264;7.150;2023-05-10T04:14:50;12.70;99.90
20833;DHT22;56075;51.264;7.150;2023-05-10T04:17:22;12.80;99.90
20833;DHT22;56075;51.264;7.150;2023-05-10T04:19:53;12.60;99.90
20833;DHT22;56075;51.264;7.150;2023-05-10T04:22:25;12.50;99.90
20833;DHT22;56075;51.264;7.150;2023-05-10T04:24:57;14.30;99.90
20833;DHT22;56075;51.264;7.150;2023-05-10T04:27:28;13.80;99.90
20833;DHT22;56075;51.264;7.150;2023-05-10T04:29:59;12.50;99.90
20833;DHT22;56075;51.264;7.150;2023-05-10T04:32:30;13.10;99.90
20833;DHT22;56075;51.264;7.150;2023-05-10T04:35:02;12.60;99.90
20833;DHT22;56075;51.264;7.150;2023-05-10T04:37:35;12.50;99.90
20833;DHT22;56075;51.264;7.150;2023-05-10T04:40:07;12.70;99.90
20833;DHT22;56075;51.264;7.150;2023-05-10T04:42:40;12.60;99.90
20833;DHT22;56075;51.264;7.150;2023-05-10T04:45:12;12.60;99.90
20833;DHT22;56075;51.264;7.150;2023-05-10T04:47:45;12.60;99.90
20833;DHT22;56075;51.264;7.150;2023-05-10T04:50:16;12.60;99.90
20833;DHT22;56075;51.264;7.150;2023-05-10T04:52:48;12.70;99.90
20833;DHT22;56075;51.264;7.150;2023-05-10T04:55:19;12.60;99.90
20833;DHT22;56075;51.264;7.150;2023-05-10T04:57:50;13.30;99.90
20833;DHT22;56075;51.264;7.150;2023-05-10T05:00:22;12.70;99.90
20833;DHT22;56075;51.264;7.150;2023-05-10T05:02:53;12.80;99.90
20833;DHT22;56075;51.264;7.150;2023-05-10T05:05:25;12.60;99.90
20833;DHT22;56075;51.264;7.150;2023-05-10T05:07:56;12.80;99.90
20833;DHT22;56075;51.264;7.150;2023-05-10T05:10:27;13.00;99.90
20833;DHT22;56075;51.264;7.150;2023-05-10T05:12:58;12.70;99.90
20833;DHT22;56075;51.264;7.150;2023-05-10T05:15:29;14.20;99.90
20833;DHT22;56075;51.264;7.150;2023-05-10T05:18:01;12.90;99.90
20833;DHT22;56075;51.264;7.150;2023-05-10T05:20:33;14.10;99.90
20833;DHT22;56075;51.264;7.150;2023-05-10T05:23:05;12.80;99.90
20833;DHT22;56075;51.264;7.150;2023-05-10T05:25:36;12.90;99.90
20833;DHT22;56075;51.264;7.150;2023-05-10T05:28:07;13.70;99.90
20833;DHT22;56075;51.264;7.150;2023-05-10T05:30:38;13.60;99.90
20833;DHT22;56075;51.264;7.150;2023-05-10T05:33:09;13.10;99.90
20833;DHT22;56075;51.264;7.150;2023-05-10T05:35:41;14.70;99.90
20833;DHT22;56075;51.264;7.150;2023-05-10T05:38:13;13.10;99.90
20833;DHT22;56075;51.264;7.150;2023-05-10T05:40:45;14.10;99.90
20833;DHT22;56075;51.264;7.150;2023-05-10T05:43:16;13.00;99.90
20833;DHT22;56075;51.264;7.150;2023-05-10T05:45:47;12.80;99.90
20833;DHT22;56075;51.264;7.150;2023-05-10T05:48:18;13.00;99.90
20833;DHT22;56075;51.264;7.150;2023-05-10T05:50:49;13.00;99.90
20833;DHT22;56075;51.264;7.150;2023-05-10T05:53:21;13.10;99.90
20833;DHT22;56075;51.264;7.150;2023-05-10T05:55:56;13.10;99.90
20833;DHT22;56075;51.264;7.150;2023-05-10T05:58:28;13.20;99.90
20833;DHT22;56075;51.264;7.150;2023-05-10T06:00:59;14.70;99.90
20833;DHT22;56075;51.264;7.150;2023-05-10T06:03:30;13.40;99.90
20833;DHT22;56075;51.264;7.150;2023-05-10T06:06:01;13.50;99.90
20833;DHT22;56075;51.264;7.150;2023-05-10T06:08:32;13.40;99.90
20833;DHT22;56075;51.264;7.150;2023-05-10T06:11:04;13.50;99.90
20833;DHT22;56075;51.264;7.150;2023-05-10T06:13:35;13.40;99.90
20833;DHT22;56075;51.264;7.150;2023-05-10T06:16:07;13.30;99.90
20833;DHT22;56075;51.264;7.150;2023-05-10T06:18:38;13.60;99.90
20833;DHT22;56075;51.264;7.150;2023-05-10T06:21:09;12.90;99.90
20833;DHT22;56075;51.264;7.150;2023-05-10T06:23:40;13.60;99.90
20833;DHT22;56075;51.264;7.150;2023-05-10T06:26:11;13.50;99.90
20833;DHT22;56075;51.264;7.150;2023-05-10T06:28:43;14.30;99.90
20833;DHT22;56075;51.264;7.150;2023-05-10T06:31:14;14.60;99.90
20833;DHT22;56075;51.264;7.150;2023-05-10T06:33:45;13.90;99.90
20833;DHT22;56075;51.264;7.150;2023-05-10T06:36:16;13.40;99.90
20833;DHT22;56075;51.264;7.150;2023-05-10T06:38:47;15.10;99.90
20833;DHT22;56075;51.264;7.150;2023-05-10T06:41:19;13.30;99.90
20833;DHT22;56075;51.264;7.150;2023-05-10T06:43:51;13.40;99.90
20833;DHT22;56075;51.264;7.150;2023-05-10T06:46:22;13.10;99.90
20833;DHT22;56075;51.264;7.150;2023-05-10T06:48:53;13.30;99.90
20833;DHT22;56075;51.264;7.150;2023-05-10T06:51:24;13.20;99.90
20833;DHT22;56075;51.264;7.150;2023-05-10T06:53:56;13.10;99.90
20833;DHT22;56075;51.264;7.150;2023-05-10T06:56:27;13.10;99.90
20833;DHT22;56075;51.264;7.150;2023-05-10T06:58:58;13.40;99.90
20833;DHT22;56075;51.264;7.150;2023-05-10T07:01:29;13.10;99.90
20833;DHT22;56075;51.264;7.150;2023-05-10T07:04:00;14.60;99.90
20833;DHT22;56075;51.264;7.150;2023-05-10T07:06:34;13.10;99.90
20833;DHT22;56075;51.264;7.150;2023-05-10T07:09:05;13.10;99.90
20833;DHT22;56075;51.264;7.150;2023-05-10T07:11:36;13.70;99.90
20833;DHT22;56075;51.264;7.150;2023-05-10T07:14:08;13.20;99.90
20833;DHT22;56075;51.264;7.150;2023-05-10T07:16:39;14.60;99.90
20833;DHT22;56075;51.264;7.150;2023-05-10T07:19:10;14.40;99.90
20833;DHT22;56075;51.264;7.150;2023-05-10T07:21:41;12.90;99.90
20833;DHT22;56075;51.264;7.150;2023-05-10T07:24:14;14.30;99.90
20833;DHT22;56075;51.264;7.150;2023-05-10T07:26:45;15.00;99.90
20833;DHT22;56075;51.264;7.150;2023-05-10T07:29:16;14.70;99.90
20833;DHT22;56075;51.264;7.150;2023-05-10T07:31:47;13.20;99.90
20833;DHT22;56075;51.264;7.150;2023-05-10T07:34:18;14.40;99.90
20833;DHT22;56075;51.264;7.150;2023-05-10T07:36:49;13.30;99.90
20833;DHT22;56075;51.264;7.150;2023-05-10T07:39:20;14.40;99.90
20833;DHT22;56075;51.264;7.150;2023-05-10T07:41:51;13.50;99.90
20833;DHT22;56075;51.264;7.150;2023-05-10T07:44:23;13.90;99.90
20833;DHT22;56075;51.264;7.150;2023-05-10T07:46:54;13.10;99.90
20833;DHT22;56075;51.264;7.150;2023-05-10T07:49:26;14.50;99.90
20833;DHT22;56075;51.264;7.150;2023-05-10T07:51:57;13.30;99.90
20833;DHT22;56075;51.264;7.150;2023-05-10T07:54:28;13.50;99.90
20833;DHT22;56075;51.264;7.150;2023-05-10T07:57:00;13.50;99.90
20833;DHT22;56075;51.264;7.150;2023-05-10T07:59:31;13.40;99.90
20833;DHT22;56075;51.264;7.150;2023-05-10T08:02:03;13.40;99.90
20833;DHT22;56075;51.264;7.150;2023-05-10T08:04:35;13.60;99.90
20833;DHT22;56075;51.264;7.150;2023-05-10T08:07:06;14.50;99.90
20833;DHT22;56075;51.264;7.150;2023-05-10T08:09:37;14.00;99.90
20833;DHT22;56075;51.264;7.150;2023-05-10T08:12:08;15.40;99.90
20833;DHT22;56075;51.264;7.150;2023-05-10T08:14:40;15.90;99.90
20833;DHT22;56075;51.264;7.150;2023-05-10T08:17:11;14.30;99.90
20833;DHT22;56075;51.264;7.150;2023-05-10T08:19:42;14.30;99.90
20833;DHT22;56075;51.264;7.150;2023-05-10T08:22:13;15.40;99.90
20833;DHT22;56075;51.264;7.150;2023-05-10T08:24:44;16.00;99.90
20833;DHT22;56075;51.264;7.150;2023-05-10T08:27:16;15.90;99.90
20833;DHT22;56075;51.264;7.150;2023-05-10T08:29:47;16.40;99.90
20833;DHT22;56075;51.264;7.150;2023-05-10T08:32:18;15.60;99.90
20833;DHT22;56075;51.264;7.150;2023-05-10T08:34:49;15.80;99.90
20833;DHT22;56075;51.264;7.150;2023-05-10T08:37:20;14.70;99.90
20833;DHT22;56075;51.264;7.150;2023-05-10T08:39:51;16.80;99.90
20833;DHT22;56075;51.264;7.150;2023-05-10T08:42:25;14.50;99.90
20833;DHT22;56075;51.264;7.150;2023-05-10T08:44:59;14.80;99.90
20833;DHT22;56075;51.264;7.150;2023-05-10T08:47:31;15.60;99.90
20833;DHT22;56075;51.264;7.150;2023-05-10T08:50:03;15.10;99.90
20833;DHT22;56075;51.264;7.150;2023-05-10T08:52:38;15.20;99.90
20833;DHT22;56075;51.264;7.150;2023-05-10T08:55:10;15.80;99.90
20833;DHT22;56075;51.264;7.150;2023-05-10T08:57:42;15.90;99.90
20833;DHT22;56075;51.264;7.150;2023-05-10T09:00:13;15.80;99.90
20833;DHT22;56075;51.264;7.150;2023-05-10T09:02:45;15.90;99.90
20833;DHT22;56075;51.264;7.150;2023-05-10T09:05:19;15.90;99.90
20833;DHT22;56075;51.264;7.150;2023-05-10T09:07:51;15.80;99.90
20833;DHT22;56075;51.264;7.150;2023-05-10T09:10:23;16.40;99.90
20833;DHT22;56075;51.264;7.150;2023-05-10T09:12:57;15.50;99.90
20833;DHT22;56075;51.264;7.150;2023-05-10T09:15:28;15.20;99.90
20833;DHT22;56075;51.264;7.150;2023-05-10T09:18:00;15.30;99.90
20833;DHT22;56075;51.264;7.150;2023-05-10T09:20:33;15.30;99.90
20833;DHT22;56075;51.264;7.150;2023-05-10T09:23:04;15.10;99.90
20833;DHT22;56075;51.264;7.150;2023-05-10T09:25:35;14.90;99.90
20833;DHT22;56075;51.264;7.150;2023-05-10T09:28:08;15.10;99.90
20833;DHT22;56075;51.264;7.150;2023-05-10T09:30:40;15.10;99.90
20833;DHT22;56075;51.264;7.150;2023-05-10T09:33:11;15.10;99.90
20833;DHT22;56075;51.264;7.150;2023-05-10T09:35:43;15.20;99.90
20833;DHT22;56075;51.264;7.150;2023-05-10T09:38:14;15.00;99.90
20833;DHT22;56075;51.264;7.150;2023-05-10T09:40:52;14.90;99.90
20833;DHT22;56075;51.264;7.150;2023-05-10T09:43:26;15.30;99.90
20833;DHT22;56075;51.264;7.150;2023-05-10T09:45:58;15.20;99.90
20833;DHT22;56075;51.264;7.150;2023-05-10T09:48:29;15.90;99.90
20833;DHT22;56075;51.264;7.150;2023-05-10T09:51:00;15.30;99.90
20833;DHT22;56075;51.264;7.150;2023-05-10T09:53:31;16.50;99.90
20833;DHT22;56075;51.264;7.150;2023-05-10T09:56:02;16.30;99.90
20833;DHT22;56075;51.264;7.150;2023-05-10T09:58:36;14.80;99.90
20833;DHT22;56075;51.264;7.150;2023-05-10T10:01:12;15.10;99.90
20833;DHT22;56075;51.264;7.150;2023-05-10T10:03:43;14.90;99.90
20833;DHT22;56075;51.264;7.150;2023-05-10T10:06:19;15.20;99.90
20833;DHT22;56075;51.264;7.150;2023-05-10T10:08:51;15.10;99.90
20833;DHT22;56075;51.264;7.150;2023-05-10T10:11:23;15.00;99.90
20833;DHT22;56075;51.264;7.150;2023-05-10T10:13:55;15.00;99.90
20833;DHT22;56075;51.264;7.150;2023-05-10T10:16:30;16.00;99.90
20833;DHT22;56075;51.264;7.150;2023-05-10T10:19:02;15.00;99.90
20833;DHT22;56075;51.264;7.150;2023-05-10T10:21:33;15.00;99.90
20833;DHT22;56075;51.264;7.150;2023-05-10T10:24:04;15.20;99.90
20833;DHT22;56075;51.264;7.150;2023-05-10T10:26:36;15.40;99.90
20833;DHT22;56075;51.264;7.150;2023-05-10T10:32:21;15.50;99.90
20833;DHT22;56075;51.264;7.150;2023-05-10T10:34:49;15.80;99.90
20833;DHT22;56075;51.264;7.150;2023-05-10T10:37:20;15.90;99.90
20833;DHT22;56075;51.264;7.150;2023-05-10T10:39:51;15.30;99.90
20833;DHT22;56075;51.264;7.150;2023-05-10T10:42:44;15.40;99.90
20833;DHT22;56075;51.264;7.150;2023-05-10T10:45:21;15.40;99.90
20833;DHT22;56075;51.264;7.150;2023-05-10T10:48:22;15.40;99.90
20833;DHT22;56075;51.264;7.150;2023-05-10T10:50:57;15.50;99.90
20833;DHT22;56075;51.264;7.150;2023-05-10T10:53:29;16.00;99.90
20833;DHT22;56075;51.264;7.150;2023-05-10T10:56:11;16.40;99.90
20833;DHT22;56075;51.264;7.150;2023-05-10T10:58:49;17.00;99.90
20833;DHT22;56075;51.264;7.150;2023-05-10T11:01:33;17.00;99.90
20833;DHT22;56075;51.264;7.150;2023-05-10T11:06:36;17.90;99.90
20833;DHT22;56075;51.264;7.150;2023-05-10T11:09:12;16.90;99.90
20833;DHT22;56075;51.264;7.150;2023-05-10T11:11:51;16.80;99.90
20833;DHT22;56075;51.264;7.150;2023-05-10T11:14:23;16.80;99.90
20833;DHT22;56075;51.264;7.150;2023-05-10T11:16:54;16.40;99.90
20833;DHT22;56075;51.264;7.150;2023-05-10T11:19:27;16.40;99.90
20833;DHT22;56075;51.264;7.150;2023-05-10T11:24:36;16.30;99.90
20833;DHT22;56075;51.264;7.150;2023-05-10T11:27:07;17.90;99.90
20833;DHT22;56075;51.264;7.150;2023-05-10T11:29:38;17.50;99.90
20833;DHT22;56075;51.264;7.150;2023-05-10T11:32:10;16.90;99.90
20833;DHT22;56075;51.264;7.150;2023-05-10T11:34:41;16.80;99.90
20833;DHT22;56075;51.264;7.150;2023-05-10T11:37:12;17.00;99.90
20833;DHT22;56075;51.264;7.150;2023-05-10T11:39:45;18.00;99.90
20833;DHT22;56075;51.264;7.150;2023-05-10T11:42:18;17.20;99.90
20833;DHT22;56075;51.264;7.150;2023-05-10T11:44:49;17.80;99.90
20833;DHT22;56075;51.264;7.150;2023-05-10T11:47:20;18.20;99.90
20833;DHT22;56075;51.264;7.150;2023-05-10T11:49:52;18.20;99.90
20833;DHT22;56075;51.264;7.150;2023-05-10T11:52:23;17.90;99.90
20833;DHT22;56075;51.264;7.150;2023-05-10T11:54:55;18.60;99.90
20833;DHT22;56075;51.264;7.150;2023-05-10T11:57:27;18.10;99.90
20833;DHT22;56075;51.264;7.150;2023-05-10T11:59:59;17.80;99.90
20833;DHT22;56075;51.264;7.150;2023-05-10T12:02:30;17.70;99.90
20833;DHT22;56075;51.264;7.150;2023-05-10T12:05:03;17.40;99.90
20833;DHT22;56075;51.264;7.150;2023-05-10T12:07:34;17.40;99.90
20833;DHT22;56075;51.264;7.150;2023-05-10T12:10:11;17.50;99.90
20833;DHT22;56075;51.264;7.150;2023-05-10T12:12:46;17.30;99.90
20833;DHT22;56075;51.264;7.150;2023-05-10T12:15:22;17.40;99.90
20833;DHT22;56075;51.264;7.150;2023-05-10T12:17:53;17.10;99.90
20833;DHT22;56075;51.264;7.150;2023-05-10T12:20:27;17.10;99.90
20833;DHT22;56075;51.264;7.150;2023-05-10T12:22:59;17.10;99.90
20833;DHT22;56075;51.264;7.150;2023-05-10T12:25:35;17.20;99.90
20833;DHT22;56075;51.264;7.150;2023-05-10T12:28:08;16.80;99.90
20833;DHT22;56075;51.264;7.150;2023-05-10T12:30:40;16.80;99.90
20833;DHT22;56075;51.264;7.150;2023-05-10T12:33:13;16.60;99.90
20833;DHT22;56075;51.264;7.150;2023-05-10T12:35:50;16.60;99.90
20833;DHT22;56075;51.264;7.150;2023-05-10T12:38:35;16.40;99.90
20833;DHT22;56075;51.264;7.150;2023-05-10T12:41:16;18.70;99.90
20833;DHT22;56075;51.264;7.150;2023-05-10T12:43:48;17.70;99.90
20833;DHT22;56075;51.264;7.150;2023-05-10T12:46:19;16.70;99.90
20833;DHT22;56075;51.264;7.150;2023-05-10T12:48:50;16.90;99.90
20833;DHT22;56075;51.264;7.150;2023-05-10T12:51:25;17.20;99.90
20833;DHT22;56075;51.264;7.150;2023-05-10T12:53:56;17.70;99.90
20833;DHT22;56075;51.264;7.150;2023-05-10T12:56:27;17.50;99.90
20833;DHT22;56075;51.264;7.150;2023-05-10T12:58:59;17.40;99.90
20833;DHT22;56075;51.264;7.150;2023-05-10T13:01:30;18.30;99.90
20833;DHT22;56075;51.264;7.150;2023-05-10T13:04:01;18.30;99.90
20833;DHT22;56075;51.264;7.150;2023-05-10T13:06:32;17.50;99.90
20833;DHT22;56075;51.264;7.150;2023-05-10T13:09:03;18.80;99.90
20833;DHT22;56075;51.264;7.150;2023-05-10T13:11:34;17.70;99.90
20833;DHT22;56075;51.264;7.150;2023-05-10T13:14:06;18.40;99.90
20833;DHT22;56075;51.264;7.150;2023-05-10T13:16:37;18.10;99.90
20833;DHT22;56075;51.264;7.150;2023-05-10T13:19:09;18.60;99.90
20833;DHT22;56075;51.264;7.150;2023-05-10T13:21:40;18.90;99.90
20833;DHT22;56075;51.264;7.150;2023-05-10T13:24:15;19.10;99.90
20833;DHT22;56075;51.264;7.150;2023-05-10T13:26:46;19.00;99.90
20833;DHT22;56075;51.264;7.150;2023-05-10T13:29:17;18.80;99.90
20833;DHT22;56075;51.264;7.150;2023-05-10T13:31:49;18.60;99.90
20833;DHT22;56075;51.264;7.150;2023-05-10T13:34:20;19.60;99.90
20833;DHT22;56075;51.264;7.150;2023-05-10T13:36:51;18.30;99.90
20833;DHT22;56075;51.264;7.150;2023-05-10T13:39:23;18.80;99.90
20833;DHT22;56075;51.264;7.150;2023-05-10T13:41:54;18.50;99.90
20833;DHT22;56075;51.264;7.150;2023-05-10T13:44:26;18.00;99.90
20833;DHT22;56075;51.264;7.150;2023-05-10T13:46:57;17.80;99.90
20833;DHT22;56075;51.264;7.150;2023-05-10T13:49:28;18.20;99.90
20833;DHT22;56075;51.264;7.150;2023-05-10T13:52:00;18.00;99.90
20833;DHT22;56075;51.264;7.150;2023-05-10T13:54:37;17.90;99.90
20833;DHT22;56075;51.264;7.150;2023-05-10T13:57:09;18.30;99.90
20833;DHT22;56075;51.264;7.150;2023-05-10T13:59:42;17.30;99.90
20833;DHT22;56075;51.264;7.150;2023-05-10T14:02:13;17.80;99.90
20833;DHT22;56075;51.264;7.150;2023-05-10T14:04:44;16.20;99.90
20833;DHT22;56075;51.264;7.150;2023-05-10T14:07:15;15.90;99.90
20833;DHT22;56075;51.264;7.150;2023-05-10T14:09:47;16.40;99.90
20833;DHT22;56075;51.264;7.150;2023-05-10T14:12:18;15.40;99.90
20833;DHT22;56075;51.264;7.150;2023-05-10T14:14:49;15.40;99.90
20833;DHT22;56075;51.264;7.150;2023-05-10T14:17:20;16.10;99.90
20833;DHT22;56075;51.264;7.150;2023-05-10T14:19:52;15.70;99.90
20833;DHT22;56075;51.264;7.150;2023-05-10T14:22:23;16.70;99.90
20833;DHT22;56075;51.264;7.150;2023-05-10T14:24:55;16.00;99.90
20833;DHT22;56075;51.264;7.150;2023-05-10T14:27:26;16.40;99.90
20833;DHT22;56075;51.264;7.150;2023-05-10T14:29:57;17.50;99.90
20833;DHT22;56075;51.264;7.150;2023-05-10T14:32:28;16.50;99.90
20833;DHT22;56075;51.264;7.150;2023-05-10T14:34:59;16.50;99.90
20833;DHT22;56075;51.264;7.150;2023-05-10T14:37:31;16.70;99.90
20833;DHT22;56075;51.264;7.150;2023-05-10T14:40:02;17.40;99.90
20833;DHT22;56075;51.264;7.150;2023-05-10T14:42:35;17.20;99.90
20833;DHT22;56075;51.264;7.150;2023-05-10T14:45:06;17.90;99.90
20833;DHT22;56075;51.264;7.150;2023-05-10T14:47:38;17.60;99.90
20833;DHT22;56075;51.264;7.150;2023-05-10T14:50:09;18.20;99.90
20833;DHT22;56075;51.264;7.150;2023-05-10T14:52:40;18.40;99.90
20833;DHT22;56075;51.264;7.150;2023-05-10T14:55:11;18.50;99.90
20833;DHT22;56075;51.264;7.150;2023-05-10T14:57:42;18.80;99.90
20833;DHT22;56075;51.264;7.150;2023-05-10T15:00:15;19.90;99.90
20833;DHT22;56075;51.264;7.150;2023-05-10T15:02:46;19.10;99.90
20833;DHT22;56075;51.264;7.150;2023-05-10T15:05:18;19.00;99.90
20833;DHT22;56075;51.264;7.150;2023-05-10T15:07:50;19.80;99.90
20833;DHT22;56075;51.264;7.150;2023-05-10T15:10:21;19.30;99.90
20833;DHT22;56075;51.264;7.150;2023-05-10T15:12:52;20.00;99.90
20833;DHT22;56075;51.264;7.150;2023-05-10T15:15:23;19.40;99.90
20833;DHT22;56075;51.264;7.150;2023-05-10T15:17:55;19.40;99.90
20833;DHT22;56075;51.264;7.150;2023-05-10T15:20:26;19.80;99.90
20833;DHT22;56075;51.264;7.150;2023-05-10T15:22:57;19.40;99.90
20833;DHT22;56075;51.264;7.150;2023-05-10T15:25:28;19.10;99.90
20833;DHT22;56075;51.264;7.150;2023-05-10T15:27:59;18.90;99.90
20833;DHT22;56075;51.264;7.150;2023-05-10T15:30:31;19.00;99.90
20833;DHT22;56075;51.264;7.150;2023-05-10T15:33:02;19.70;99.90
20833;DHT22;56075;51.264;7.150;2023-05-10T15:35:33;18.50;99.90
20833;DHT22;56075;51.264;7.150;2023-05-10T15:38:06;18.30;99.90
20833;DHT22;56075;51.264;7.150;2023-05-10T15:40:38;17.90;99.90
20833;DHT22;56075;51.264;7.150;2023-05-10T15:43:09;17.80;99.90
20833;DHT22;56075;51.264;7.150;2023-05-10T15:45:40;17.60;99.90
20833;DHT22;56075;51.264;7.150;2023-05-10T15:48:11;18.00;99.90
20833;DHT22;56075;51.264;7.150;2023-05-10T15:50:42;18.10;99.90
20833;DHT22;56075;51.264;7.150;2023-05-10T15:53:14;17.60;99.90
20833;DHT22;56075;51.264;7.150;2023-05-10T15:55:45;18.40;99.90
20833;DHT22;56075;51.264;7.150;2023-05-10T15:58:17;17.70;99.90
20833;DHT22;56075;51.264;7.150;2023-05-10T16:00:48;17.60;99.90
20833;DHT22;56075;51.264;7.150;2023-05-10T16:03:19;19.40;99.90
20833;DHT22;56075;51.264;7.150;2023-05-10T16:05:51;17.70;99.90
20833;DHT22;56075;51.264;7.150;2023-05-10T16:08:22;17.90;99.90
20833;DHT22;56075;51.264;7.150;2023-05-10T16:10:53;18.20;99.90
20833;DHT22;56075;51.264;7.150;2023-05-10T16:13:24;19.50;99.90
20833;DHT22;56075;51.264;7.150;2023-05-10T16:15:55;18.60;99.90
20833;DHT22;56075;51.264;7.150;2023-05-10T16:18:28;18.90;99.90
20833;DHT22;56075;51.264;7.150;2023-05-10T16:20:59;18.80;99.90